sensor_id;sensor_type;location;lat;lon;timestamp;P1;durP1;ratioP1;P2;durP2;ratioP2
12005;SDS011;6062;47.294;12.182;2023-05-07T00:00:02;1.60;;;1.00;;
12005;SDS011;6062;47.294;12.182;2023-05-07T00:02:32;3.40;;;1.08;;
12005;SDS011;6062;47.294;12.182;2023-05-07T00:04:59;1.75;;;1.10;;
12005;SDS011;6062;47.294;12.182;2023-05-07T00:07:24;1.25;;;1.00;;
12005;SDS011;6062;47.294;12.182;2023-05-07T00:09:50;1.27;;;1.10;;
12005;SDS011;6062;47.294;12.182;2023-05-07T00:12:16;1.60;;;1.10;;
12005;SDS011;6062;47.294;12.182;2023-05-07T00:14:41;1.10;;;1.00;;
12005;SDS011;6062;47.294;12.182;2023-05-07T00:17:07;1.80;;;1.10;;
12005;SDS011;6062;47.294;12.182;2023-05-07T00:19:33;1.20;;;1.10;;
12005;SDS011;6062;47.294;12.182;2023-05-07T00:21:59;1.83;;;1.10;;
12005;SDS011;6062;47.294;12.182;2023-05-07T00:24:24;1.20;;;1.10;;
12005;SDS011;6062;47.294;12.182;2023-05-07T00:26:50;2.72;;;1.13;;
12005;SDS011;6062;47.294;12.182;2023-05-07T00:29:17;1.48;;;0.98;;
12005;SDS011;6062;47.294;12.182;2023-05-07T00:31:43;1.40;;;1.08;;
12005;SDS011;6062;47.294;12.182;2023-05-07T00:34:09;1.40;;;1.10;;
12005;SDS011;6062;47.294;12.182;2023-05-07T00:36:35;1.17;;;0.98;;
12005;SDS011;6062;47.294;12.182;2023-05-07T00:39:00;1.38;;;0.90;;
12005;SDS011;6062;47.294;12.182;2023-05-07T00:41:28;1.83;;;1.10;;
12005;SDS011;6062;47.294;12.182;2023-05-07T00:43:56;1.38;;;1.10;;
12005;SDS011;6062;47.294;12.182;2023-05-07T00:46:21;1.10;;;1.00;;
12005;SDS011;6062;47.294;12.182;2023-05-07T00:48:49;1.15;;;0.93;;
12005;SDS011;6062;47.294;12.182;2023-05-07T00:51:17;1.60;;;0.95;;
12005;SDS011;6062;47.294;12.182;2023-05-07T00:53:43;2.10;;;1.38;;
12005;SDS011;6062;47.294;12.182;2023-05-07T00:56:09;1.00;;;0.90;;
12005;SDS011;6062;47.294;12.182;2023-05-07T00:58:36;1.63;;;1.17;;
12005;SDS011;6062;47.294;12.182;2023-05-07T01:01:03;1.33;;;1.20;;
12005;SDS011;6062;47.294;12.182;2023-05-07T01:03:28;0.80;;;0.80;;
12005;SDS011;6062;47.294;12.182;2023-05-07T01:05:54;1.30;;;1.10;;
12005;SDS011;6062;47.294;12.182;2023-05-07T01:08:23;1.50;;;1.15;;
12005;SDS011;6062;47.294;12.182;2023-05-07T01:10:51;1.20;;;1.10;;
12005;SDS011;6062;47.294;12.182;2023-05-07T01:13:17;1.20;;;1.10;;
12005;SDS011;6062;47.294;12.182;2023-05-07T01:15:44;2.50;;;1.10;;
12005;SDS011;6062;47.294;12.182;2023-05-07T01:18:10;1.00;;;0.90;;
12005;SDS011;6062;47.294;12.182;2023-05-07T01:20:36;1.33;;;1.00;;
12005;SDS011;6062;47.294;12.182;2023-05-07T01:23:01;1.65;;;1.05;;
12005;SDS011;6062;47.294;12.182;2023-05-07T01:25:28;1.15;;;1.05;;
12005;SDS011;6062;47.294;12.182;2023-05-07T01:27:55;1.30;;;1.00;;
12005;SDS011;6062;47.294;12.182;2023-05-07T01:30:21;3.20;;;1.08;;
12005;SDS011;6062;47.294;12.182;2023-05-07T01:32:48;2.20;;;1.08;;
12005;SDS011;6062;47.294;12.182;2023-05-07T01:35:22;1.00;;;0.90;;
12005;SDS011;6062;47.294;12.182;2023-05-07T01:37:53;2.50;;;1.05;;
12005;SDS011;6062;47.294;12.182;2023-05-07T01:40:22;1.50;;;1.23;;
12005;SDS011;6062;47.294;12.182;2023-05-07T01:42:50;2.53;;;1.17;;
12005;SDS011;6062;47.294;12.182;2023-05-07T01:45:17;2.45;;;1.10;;
12005;SDS011;6062;47.294;12.182;2023-05-07T01:47:42;1.02;;;0.95;;
12005;SDS011;6062;47.294;12.182;2023-05-07T01:50:09;1.20;;;1.10;;
12005;SDS011;6062;47.294;12.182;2023-05-07T01:52:38;1.75;;;1.20;;
12005;SDS011;6062;47.294;12.182;2023-05-07T01:55:04;1.38;;;1.10;;
12005;SDS011;6062;47.294;12.182;2023-05-07T01:57:31;1.17;;;1.08;;
12005;SDS011;6062;47.294;12.182;2023-05-07T01:59:57;1.85;;;1.30;;
12005;SDS011;6062;47.294;12.182;2023-05-07T02:02:22;2.97;;;1.08;;
12005;SDS011;6062;47.294;12.182;2023-05-07T02:04:48;2.20;;;1.10;;
12005;SDS011;6062;47.294;12.182;2023-05-07T02:07:14;1.58;;;1.20;;
12005;SDS011;6062;47.294;12.182;2023-05-07T02:09:40;1.00;;;0.90;;
12005;SDS011;6062;47.294;12.182;2023-05-07T02:12:06;2.92;;;1.10;;
12005;SDS011;6062;47.294;12.182;2023-05-07T02:14:31;2.65;;;1.10;;
12005;SDS011;6062;47.294;12.182;2023-05-07T02:16:57;1.20;;;1.05;;
12005;SDS011;6062;47.294;12.182;2023-05-07T02:19:23;1.63;;;1.00;;
12005;SDS011;6062;47.294;12.182;2023-05-07T02:21:48;1.38;;;1.17;;
12005;SDS011;6062;47.294;12.182;2023-05-07T02:24:15;2.38;;;1.10;;
12005;SDS011;6062;47.294;12.182;2023-05-07T02:26:41;1.10;;;1.00;;
12005;SDS011;6062;47.294;12.182;2023-05-07T02:29:06;1.42;;;1.15;;
12005;SDS011;6062;47.294;12.182;2023-05-07T02:31:32;1.30;;;1.10;;
12005;SDS011;6062;47.294;12.182;2023-05-07T02:33:59;1.10;;;0.90;;
12005;SDS011;6062;47.294;12.182;2023-05-07T02:36:25;1.10;;;1.00;;
12005;SDS011;6062;47.294;12.182;2023-05-07T02:38:54;1.30;;;1.10;;
12005;SDS011;6062;47.294;12.182;2023-05-07T02:41:20;1.10;;;1.00;;
12005;SDS011;6062;47.294;12.182;2023-05-07T02:43:45;1.40;;;1.10;;
12005;SDS011;6062;47.294;12.182;2023-05-07T02:46:11;2.53;;;1.23;;
12005;SDS011;6062;47.294;12.182;2023-05-07T02:48:37;1.85;;;1.08;;
12005;SDS011;6062;47.294;12.182;2023-05-07T02:51:03;2.38;;;1.20;;
12005;SDS011;6062;47.294;12.182;2023-05-07T02:53:30;1.13;;;0.90;;
12005;SDS011;6062;47.294;12.182;2023-05-07T02:55:57;1.70;;;1.10;;
12005;SDS011;6062;47.294;12.182;2023-05-07T02:58:23;1.30;;;1.10;;
12005;SDS011;6062;47.294;12.182;2023-05-07T03:00:49;1.10;;;1.00;;
12005;SDS011;6062;47.294;12.182;2023-05-07T03:03:15;1.10;;;1.00;;
12005;SDS011;6062;47.294;12.182;2023-05-07T03:05:42;1.45;;;1.23;;
12005;SDS011;6062;47.294;12.182;2023-05-07T03:08:08;1.15;;;1.00;;
12005;SDS011;6062;47.294;12.182;2023-05-07T03:10:35;1.42;;;1.20;;
12005;SDS011;6062;47.294;12.182;2023-05-07T03:13:02;0.98;;;0.85;;
12005;SDS011;6062;47.294;12.182;2023-05-07T03:15:28;1.00;;;0.90;;
12005;SDS011;6062;47.294;12.182;2023-05-07T03:17:54;0.98;;;0.85;;
12005;SDS011;6062;47.294;12.182;2023-05-07T03:20:20;3.88;;;1.20;;
12005;SDS011;6062;47.294;12.182;2023-05-07T03:22:47;2.90;;;1.00;;
12005;SDS011;6062;47.294;12.182;2023-05-07T03:25:13;1.17;;;1.00;;
12005;SDS011;6062;47.294;12.182;2023-05-07T03:27:39;1.55;;;1.10;;
12005;SDS011;6062;47.294;12.182;2023-05-07T03:30:07;2.28;;;1.05;;
12005;SDS011;6062;47.294;12.182;2023-05-07T03:32:33;1.15;;;0.95;;
12005;SDS011;6062;47.294;12.182;2023-05-07T03:35:00;1.02;;;0.93;;
12005;SDS011;6062;47.294;12.182;2023-05-07T03:37:27;1.20;;;0.90;;
12005;SDS011;6062;47.294;12.182;2023-05-07T03:39:53;1.33;;;1.10;;
12005;SDS011;6062;47.294;12.182;2023-05-07T03:42:18;1.25;;;0.95;;
12005;SDS011;6062;47.294;12.182;2023-05-07T03:44:44;2.08;;;1.02;;
12005;SDS011;6062;47.294;12.182;2023-05-07T03:47:10;1.48;;;1.00;;
12005;SDS011;6062;47.294;12.182;2023-05-07T03:49:36;1.20;;;1.08;;
12005;SDS011;6062;47.294;12.182;2023-05-07T03:52:02;3.22;;;1.10;;
12005;SDS011;6062;47.294;12.182;2023-05-07T03:54:27;1.23;;;0.90;;
12005;SDS011;6062;47.294;12.182;2023-05-07T03:56:53;1.35;;;0.88;;
12005;SDS011;6062;47.294;12.182;2023-05-07T03:59:19;1.00;;;0.90;;
12005;SDS011;6062;47.294;12.182;2023-05-07T04:01:45;0.95;;;0.85;;
12005;SDS011;6062;47.294;12.182;2023-05-07T04:04:10;0.82;;;0.82;;
12005;SDS011;6062;47.294;12.182;2023-05-07T04:06:36;1.17;;;0.98;;
12005;SDS011;6062;47.294;12.182;2023-05-07T04:09:02;1.30;;;1.10;;
12005;SDS011;6062;47.294;12.182;2023-05-07T04:11:28;1.70;;;1.10;;
12005;SDS011;6062;47.294;12.182;2023-05-07T04:13:54;1.52;;;1.10;;
12005;SDS011;6062;47.294;12.182;2023-05-07T04:16:19;1.30;;;1.10;;
12005;SDS011;6062;47.294;12.182;2023-05-07T04:18:45;0.95;;;0.85;;
12005;SDS011;6062;47.294;12.182;2023-05-07T04:21:15;2.00;;;1.20;;
12005;SDS011;6062;47.294;12.182;2023-05-07T04:23:48;1.10;;;0.90;;
12005;SDS011;6062;47.294;12.182;2023-05-07T04:26:14;0.82;;;0.80;;
12005;SDS011;6062;47.294;12.182;2023-05-07T04:28:41;1.10;;;1.00;;
12005;SDS011;6062;47.294;12.182;2023-05-07T04:31:07;1.00;;;0.90;;
12005;SDS011;6062;47.294;12.182;2023-05-07T04:33:33;1.20;;;1.10;;
12005;SDS011;6062;47.294;12.182;2023-05-07T04:36:02;1.65;;;1.10;;
12005;SDS011;6062;47.294;12.182;2023-05-07T04:38:31;1.10;;;0.90;;
12005;SDS011;6062;47.294;12.182;2023-05-07T04:41:02;1.33;;;0.90;;
12005;SDS011;6062;47.294;12.182;2023-05-07T04:43:29;1.63;;;1.10;;
12005;SDS011;6062;47.294;12.182;2023-05-07T04:45:55;2.33;;;1.00;;
12005;SDS011;6062;47.294;12.182;2023-05-07T04:48:21;1.45;;;0.90;;
12005;SDS011;6062;47.294;12.182;2023-05-07T04:50:47;2.05;;;1.00;;
12005;SDS011;6062;47.294;12.182;2023-05-07T04:53:13;1.10;;;1.00;;
12005;SDS011;6062;47.294;12.182;2023-05-07T04:55:39;1.20;;;1.10;;
12005;SDS011;6062;47.294;12.182;2023-05-07T04:58:05;1.05;;;0.90;;
12005;SDS011;6062;47.294;12.182;2023-05-07T05:00:30;1.70;;;1.00;;
12005;SDS011;6062;47.294;12.182;2023-05-07T05:02:56;2.08;;;1.02;;
12005;SDS011;6062;47.294;12.182;2023-05-07T05:05:22;1.10;;;1.00;;
12005;SDS011;6062;47.294;12.182;2023-05-07T05:07:47;0.93;;;0.82;;
12005;SDS011;6062;47.294;12.182;2023-05-07T05:10:13;0.95;;;0.90;;
12005;SDS011;6062;47.294;12.182;2023-05-07T05:12:39;1.75;;;1.10;;
12005;SDS011;6062;47.294;12.182;2023-05-07T05:15:05;1.40;;;1.10;;
12005;SDS011;6062;47.294;12.182;2023-05-07T05:17:31;2.33;;;1.33;;
12005;SDS011;6062;47.294;12.182;2023-05-07T05:19:59;1.50;;;1.23;;
12005;SDS011;6062;47.294;12.182;2023-05-07T05:22:25;1.10;;;1.00;;
12005;SDS011;6062;47.294;12.182;2023-05-07T05:24:51;2.17;;;0.90;;
12005;SDS011;6062;47.294;12.182;2023-05-07T05:27:17;3.15;;;1.17;;
12005;SDS011;6062;47.294;12.182;2023-05-07T05:29:42;1.70;;;1.20;;
12005;SDS011;6062;47.294;12.182;2023-05-07T05:32:08;1.73;;;1.20;;
12005;SDS011;6062;47.294;12.182;2023-05-07T05:34:34;4.57;;;1.20;;
12005;SDS011;6062;47.294;12.182;2023-05-07T05:37:00;1.25;;;1.10;;
12005;SDS011;6062;47.294;12.182;2023-05-07T05:39:26;1.25;;;1.10;;
12005;SDS011;6062;47.294;12.182;2023-05-07T05:41:52;1.70;;;1.10;;
12005;SDS011;6062;47.294;12.182;2023-05-07T05:44:17;1.27;;;1.17;;
12005;SDS011;6062;47.294;12.182;2023-05-07T05:46:43;1.27;;;1.15;;
12005;SDS011;6062;47.294;12.182;2023-05-07T05:49:09;1.00;;;0.90;;
12005;SDS011;6062;47.294;12.182;2023-05-07T05:51:35;1.60;;;1.00;;
12005;SDS011;6062;47.294;12.182;2023-05-07T05:54:00;1.38;;;1.00;;
12005;SDS011;6062;47.294;12.182;2023-05-07T05:56:26;1.25;;;1.00;;
12005;SDS011;6062;47.294;12.182;2023-05-07T05:58:52;1.65;;;1.10;;
12005;SDS011;6062;47.294;12.182;2023-05-07T06:01:18;1.20;;;1.00;;
12005;SDS011;6062;47.294;12.182;2023-05-07T06:03:44;2.20;;;1.00;;
12005;SDS011;6062;47.294;12.182;2023-05-07T06:06:09;1.25;;;1.00;;
12005;SDS011;6062;47.294;12.182;2023-05-07T06:08:35;1.00;;;0.90;;
12005;SDS011;6062;47.294;12.182;2023-05-07T06:11:01;1.17;;;1.00;;
12005;SDS011;6062;47.294;12.182;2023-05-07T06:13:28;0.85;;;0.85;;
12005;SDS011;6062;47.294;12.182;2023-05-07T06:15:53;0.95;;;0.93;;
12005;SDS011;6062;47.294;12.182;2023-05-07T06:18:19;1.45;;;0.98;;
12005;SDS011;6062;47.294;12.182;2023-05-07T06:20:45;2.90;;;1.05;;
12005;SDS011;6062;47.294;12.182;2023-05-07T06:23:10;1.00;;;0.80;;
12005;SDS011;6062;47.294;12.182;2023-05-07T06:25:36;1.27;;;0.82;;
12005;SDS011;6062;47.294;12.182;2023-05-07T06:28:02;1.50;;;0.98;;
12005;SDS011;6062;47.294;12.182;2023-05-07T06:30:27;1.20;;;0.90;;
12005;SDS011;6062;47.294;12.182;2023-05-07T06:32:53;1.00;;;0.90;;
12005;SDS011;6062;47.294;12.182;2023-05-07T06:35:19;1.02;;;0.90;;
12005;SDS011;6062;47.294;12.182;2023-05-07T06:37:45;1.30;;;0.85;;
12005;SDS011;6062;47.294;12.182;2023-05-07T06:40:10;0.80;;;0.80;;
12005;SDS011;6062;47.294;12.182;2023-05-07T06:42:36;1.65;;;0.85;;
12005;SDS011;6062;47.294;12.182;2023-05-07T06:45:02;0.80;;;0.80;;
12005;SDS011;6062;47.294;12.182;2023-05-07T06:47:29;1.10;;;0.70;;
12005;SDS011;6062;47.294;12.182;2023-05-07T06:49:55;1.30;;;0.80;;
12005;SDS011;6062;47.294;12.182;2023-05-07T06:52:21;1.52;;;0.80;;
12005;SDS011;6062;47.294;12.182;2023-05-07T06:54:46;0.75;;;0.50;;
12005;SDS011;6062;47.294;12.182;2023-05-07T06:57:12;1.27;;;0.95;;
12005;SDS011;6062;47.294;12.182;2023-05-07T06:59:38;0.75;;;0.70;;
12005;SDS011;6062;47.294;12.182;2023-05-07T07:02:03;1.73;;;0.85;;
12005;SDS011;6062;47.294;12.182;2023-05-07T07:04:29;1.75;;;1.00;;
12005;SDS011;6062;47.294;12.182;2023-05-07T07:06:55;0.90;;;0.70;;
12005;SDS011;6062;47.294;12.182;2023-05-07T07:09:21;0.95;;;0.88;;
12005;SDS011;6062;47.294;12.182;2023-05-07T07:11:47;0.70;;;0.70;;
12005;SDS011;6062;47.294;12.182;2023-05-07T07:14:13;0.77;;;0.65;;
12005;SDS011;6062;47.294;12.182;2023-05-07T07:16:39;0.70;;;0.70;;
12005;SDS011;6062;47.294;12.182;2023-05-07T07:19:05;1.67;;;0.80;;
12005;SDS011;6062;47.294;12.182;2023-05-07T07:21:31;1.45;;;0.70;;
12005;SDS011;6062;47.294;12.182;2023-05-07T07:23:57;1.15;;;0.90;;
12005;SDS011;6062;47.294;12.182;2023-05-07T07:26:22;1.38;;;0.80;;
12005;SDS011;6062;47.294;12.182;2023-05-07T07:28:48;0.95;;;0.60;;
12005;SDS011;6062;47.294;12.182;2023-05-07T07:31:17;1.05;;;0.82;;
12005;SDS011;6062;47.294;12.182;2023-05-07T07:33:42;1.13;;;0.95;;
12005;SDS011;6062;47.294;12.182;2023-05-07T07:36:09;1.65;;;0.80;;
12005;SDS011;6062;47.294;12.182;2023-05-07T07:38:35;0.73;;;0.50;;
12005;SDS011;6062;47.294;12.182;2023-05-07T07:41:00;0.80;;;0.57;;
12005;SDS011;6062;47.294;12.182;2023-05-07T07:43:27;1.85;;;0.68;;
12005;SDS011;6062;47.294;12.182;2023-05-07T07:45:52;1.70;;;0.90;;
12005;SDS011;6062;47.294;12.182;2023-05-07T07:48:18;0.90;;;0.85;;
12005;SDS011;6062;47.294;12.182;2023-05-07T07:50:44;1.08;;;0.65;;
12005;SDS011;6062;47.294;12.182;2023-05-07T07:53:13;1.63;;;0.90;;
12005;SDS011;6062;47.294;12.182;2023-05-07T07:55:39;0.98;;;0.70;;
12005;SDS011;6062;47.294;12.182;2023-05-07T07:58:05;0.85;;;0.70;;
12005;SDS011;6062;47.294;12.182;2023-05-07T08:00:31;1.00;;;0.80;;
12005;SDS011;6062;47.294;12.182;2023-05-07T08:02:56;0.50;;;0.50;;
12005;SDS011;6062;47.294;12.182;2023-05-07T08:05:22;0.70;;;0.60;;
12005;SDS011;6062;47.294;12.182;2023-05-07T08:07:49;1.40;;;0.70;;
12005;SDS011;6062;47.294;12.182;2023-05-07T08:10:18;0.95;;;0.80;;
12005;SDS011;6062;47.294;12.182;2023-05-07T08:12:49;1.08;;;0.80;;
12005;SDS011;6062;47.294;12.182;2023-05-07T08:15:16;1.02;;;0.80;;
12005;SDS011;6062;47.294;12.182;2023-05-07T08:17:42;2.05;;;0.70;;
12005;SDS011;6062;47.294;12.182;2023-05-07T08:20:08;1.13;;;0.70;;
12005;SDS011;6062;47.294;12.182;2023-05-07T08:22:35;0.60;;;0.60;;
12005;SDS011;6062;47.294;12.182;2023-05-07T08:25:01;2.08;;;0.75;;
12005;SDS011;6062;47.294;12.182;2023-05-07T08:27:27;0.80;;;0.75;;
12005;SDS011;6062;47.294;12.182;2023-05-07T08:29:53;1.42;;;0.77;;
12005;SDS011;6062;47.294;12.182;2023-05-07T08:32:19;0.80;;;0.77;;
12005;SDS011;6062;47.294;12.182;2023-05-07T08:34:46;0.98;;;0.73;;
12005;SDS011;6062;47.294;12.182;2023-05-07T08:37:12;0.70;;;0.70;;
12005;SDS011;6062;47.294;12.182;2023-05-07T08:39:38;1.65;;;0.88;;
12005;SDS011;6062;47.294;12.182;2023-05-07T08:42:04;1.33;;;0.90;;
12005;SDS011;6062;47.294;12.182;2023-05-07T08:44:33;0.80;;;0.70;;
12005;SDS011;6062;47.294;12.182;2023-05-07T08:47:00;0.80;;;0.63;;
12005;SDS011;6062;47.294;12.182;2023-05-07T08:49:27;0.98;;;0.88;;
12005;SDS011;6062;47.294;12.182;2023-05-07T08:51:53;0.88;;;0.75;;
12005;SDS011;6062;47.294;12.182;2023-05-07T08:54:20;0.60;;;0.60;;
12005;SDS011;6062;47.294;12.182;2023-05-07T08:56:46;0.80;;;0.70;;
12005;SDS011;6062;47.294;12.182;2023-05-07T08:59:13;1.20;;;0.80;;
12005;SDS011;6062;47.294;12.182;2023-05-07T09:01:39;1.30;;;0.70;;
12005;SDS011;6062;47.294;12.182;2023-05-07T09:04:05;1.52;;;0.80;;
12005;SDS011;6062;47.294;12.182;2023-05-07T09:06:32;0.90;;;0.70;;
12005;SDS011;6062;47.294;12.182;2023-05-07T09:08:58;1.45;;;0.90;;
12005;SDS011;6062;47.294;12.182;2023-05-07T09:11:26;0.77;;;0.70;;
12005;SDS011;6062;47.294;12.182;2023-05-07T09:13:55;0.90;;;0.70;;
12005;SDS011;6062;47.294;12.182;2023-05-07T09:16:27;1.73;;;0.70;;
12005;SDS011;6062;47.294;12.182;2023-05-07T09:18:57;0.45;;;0.40;;
12005;SDS011;6062;47.294;12.182;2023-05-07T09:21:25;0.80;;;0.80;;
12005;SDS011;6062;47.294;12.182;2023-05-07T09:23:52;0.75;;;0.60;;
12005;SDS011;6062;47.294;12.182;2023-05-07T09:26:23;0.68;;;0.68;;
12005;SDS011;6062;47.294;12.182;2023-05-07T09:28:50;0.50;;;0.50;;
12005;SDS011;6062;47.294;12.182;2023-05-07T09:31:16;0.85;;;0.65;;
12005;SDS011;6062;47.294;12.182;2023-05-07T09:33:43;0.60;;;0.60;;
12005;SDS011;6062;47.294;12.182;2023-05-07T09:36:09;0.98;;;0.60;;
12005;SDS011;6062;47.294;12.182;2023-05-07T09:38:36;0.50;;;0.50;;
12005;SDS011;6062;47.294;12.182;2023-05-07T09:43:34;0.40;;;0.40;;
12005;SDS011;6062;47.294;12.182;2023-05-07T09:46:25;0.77;;;0.50;;
12005;SDS011;6062;47.294;12.182;2023-05-07T09:48:56;0.68;;;0.60;;
12005;SDS011;6062;47.294;12.182;2023-05-07T09:51:30;0.90;;;0.60;;
12005;SDS011;6062;47.294;12.182;2023-05-07T09:54:06;0.60;;;0.50;;
12005;SDS011;6062;47.294;12.182;2023-05-07T09:56:32;0.98;;;0.60;;
12005;SDS011;6062;47.294;12.182;2023-05-07T09:58:59;0.60;;;0.50;;
12005;SDS011;6062;47.294;12.182;2023-05-07T10:01:25;0.98;;;0.52;;
12005;SDS011;6062;47.294;12.182;2023-05-07T10:03:52;0.43;;;0.40;;
12005;SDS011;6062;47.294;12.182;2023-05-07T10:06:19;0.75;;;0.43;;
12005;SDS011;6062;47.294;12.182;2023-05-07T10:08:46;0.70;;;0.60;;
12005;SDS011;6062;47.294;12.182;2023-05-07T10:11:13;0.50;;;0.50;;
12005;SDS011;6062;47.294;12.182;2023-05-07T10:13:41;0.90;;;0.60;;
12005;SDS011;6062;47.294;12.182;2023-05-07T10:16:08;0.40;;;0.40;;
12005;SDS011;6062;47.294;12.182;2023-05-07T10:18:33;0.73;;;0.50;;
12005;SDS011;6062;47.294;12.182;2023-05-07T10:21:16;0.50;;;0.50;;
12005;SDS011;6062;47.294;12.182;2023-05-07T10:23:47;0.57;;;0.50;;
12005;SDS011;6062;47.294;12.182;2023-05-07T10:26:23;0.65;;;0.40;;
12005;SDS011;6062;47.294;12.182;2023-05-07T10:28:54;0.60;;;0.50;;
12005;SDS011;6062;47.294;12.182;2023-05-07T10:35:04;0.68;;;0.65;;
12005;SDS011;6062;47.294;12.182;2023-05-07T10:37:42;0.60;;;0.60;;
12005;SDS011;6062;47.294;12.182;2023-05-07T10:40:10;0.85;;;0.60;;
12005;SDS011;6062;47.294;12.182;2023-05-07T10:42:37;0.90;;;0.80;;
12005;SDS011;6062;47.294;12.182;2023-05-07T10:45:12;0.50;;;0.50;;
12005;SDS011;6062;47.294;12.182;2023-05-07T10:50:30;1.13;;;0.77;;
12005;SDS011;6062;47.294;12.182;2023-05-07T10:55:47;0.80;;;0.73;;
12005;SDS011;6062;47.294;12.182;2023-05-07T10:58:37;1.63;;;0.93;;
12005;SDS011;6062;47.294;12.182;2023-05-07T11:01:02;1.33;;;0.60;;
12005;SDS011;6062;47.294;12.182;2023-05-07T11:03:28;1.08;;;0.70;;
12005;SDS011;6062;47.294;12.182;2023-05-07T11:06:11;0.70;;;0.70;;
12005;SDS011;6062;47.294;12.182;2023-05-07T11:08:59;0.80;;;0.77;;
12005;SDS011;6062;47.294;12.182;2023-05-07T11:17:05;0.80;;;0.80;;
12005;SDS011;6062;47.294;12.182;2023-05-07T11:19:51;2.50;;;0.80;;
12005;SDS011;6062;47.294;12.182;2023-05-07T11:25:01;0.93;;;0.82;;
12005;SDS011;6062;47.294;12.182;2023-05-07T11:27:29;1.80;;;0.95;;
12005;SDS011;6062;47.294;12.182;2023-05-07T11:29:55;1.40;;;1.00;;
12005;SDS011;6062;47.294;12.182;2023-05-07T11:32:28;1.23;;;0.80;;
12005;SDS011;6062;47.294;12.182;2023-05-07T11:34:57;0.88;;;0.80;;
12005;SDS011;6062;47.294;12.182;2023-05-07T11:37:25;0.60;;;0.60;;
12005;SDS011;6062;47.294;12.182;2023-05-07T11:42:34;5.85;;;0.98;;
12005;SDS011;6062;47.294;12.182;2023-05-07T11:45:03;1.10;;;0.90;;
12005;SDS011;6062;47.294;12.182;2023-05-07T11:47:30;0.70;;;0.70;;
12005;SDS011;6062;47.294;12.182;2023-05-07T11:49:57;1.48;;;1.00;;
12005;SDS011;6062;47.294;12.182;2023-05-07T11:52:32;0.93;;;0.77;;
12005;SDS011;6062;47.294;12.182;2023-05-07T11:54:59;1.60;;;0.80;;
12005;SDS011;6062;47.294;12.182;2023-05-07T11:57:28;1.85;;;0.77;;
12005;SDS011;6062;47.294;12.182;2023-05-07T11:59:54;1.58;;;0.85;;
12005;SDS011;6062;47.294;12.182;2023-05-07T12:02:22;1.52;;;0.80;;
12005;SDS011;6062;47.294;12.182;2023-05-07T12:04:49;0.98;;;0.88;;
12005;SDS011;6062;47.294;12.182;2023-05-07T12:07:16;0.90;;;0.70;;
12005;SDS011;6062;47.294;12.182;2023-05-07T12:09:45;1.17;;;0.73;;
12005;SDS011;6062;47.294;12.182;2023-05-07T12:12:12;1.00;;;0.80;;
12005;SDS011;6062;47.294;12.182;2023-05-07T12:14:40;2.13;;;0.90;;
12005;SDS011;6062;47.294;12.182;2023-05-07T12:17:08;1.20;;;1.10;;
12005;SDS011;6062;47.294;12.182;2023-05-07T12:19:37;1.38;;;0.90;;
12005;SDS011;6062;47.294;12.182;2023-05-07T12:22:09;1.00;;;0.82;;
12005;SDS011;6062;47.294;12.182;2023-05-07T12:24:43;1.00;;;0.90;;
12005;SDS011;6062;47.294;12.182;2023-05-07T12:27:21;1.20;;;1.10;;
12005;SDS011;6062;47.294;12.182;2023-05-07T12:29:48;0.90;;;0.90;;
12005;SDS011;6062;47.294;12.182;2023-05-07T12:32:16;1.38;;;0.90;;
12005;SDS011;6062;47.294;12.182;2023-05-07T12:34:45;1.00;;;0.90;;
12005;SDS011;6062;47.294;12.182;2023-05-07T12:37:14;1.42;;;0.88;;
12005;SDS011;6062;47.294;12.182;2023-05-07T12:39:50;3.75;;;1.10;;
12005;SDS011;6062;47.294;12.182;2023-05-07T12:42:35;1.33;;;1.00;;
12005;SDS011;6062;47.294;12.182;2023-05-07T12:45:11;0.95;;;0.90;;
12005;SDS011;6062;47.294;12.182;2023-05-07T12:47:43;0.82;;;0.80;;
12005;SDS011;6062;47.294;12.182;2023-05-07T12:50:13;1.60;;;1.02;;
12005;SDS011;6062;47.294;12.182;2023-05-07T12:52:40;1.17;;;0.90;;
12005;SDS011;6062;47.294;12.182;2023-05-07T12:55:08;1.00;;;0.77;;
12005;SDS011;6062;47.294;12.182;2023-05-07T12:57:38;1.48;;;1.00;;
12005;SDS011;6062;47.294;12.182;2023-05-07T13:00:13;1.05;;;0.90;;
12005;SDS011;6062;47.294;12.182;2023-05-07T13:02:40;1.00;;;0.80;;
12005;SDS011;6062;47.294;12.182;2023-05-07T13:05:09;1.40;;;1.08;;
12005;SDS011;6062;47.294;12.182;2023-05-07T13:07:35;2.25;;;1.10;;
12005;SDS011;6062;47.294;12.182;2023-05-07T13:10:02;1.05;;;0.95;;
12005;SDS011;6062;47.294;12.182;2023-05-07T13:12:28;1.25;;;1.00;;
12005;SDS011;6062;47.294;12.182;2023-05-07T13:14:54;1.10;;;0.90;;
12005;SDS011;6062;47.294;12.182;2023-05-07T13:17:20;1.60;;;1.10;;
12005;SDS011;6062;47.294;12.182;2023-05-07T13:19:46;1.00;;;0.85;;
12005;SDS011;6062;47.294;12.182;2023-05-07T13:22:12;0.75;;;0.63;;
12005;SDS011;6062;47.294;12.182;2023-05-07T13:24:37;1.13;;;0.80;;
12005;SDS011;6062;47.294;12.182;2023-05-07T13:27:06;1.00;;;0.90;;
12005;SDS011;6062;47.294;12.182;2023-05-07T13:29:32;1.63;;;0.90;;
12005;SDS011;6062;47.294;12.182;2023-05-07T13:31:57;1.23;;;0.90;;
12005;SDS011;6062;47.294;12.182;2023-05-07T13:34:24;0.98;;;0.88;;
12005;SDS011;6062;47.294;12.182;2023-05-07T13:36:49;1.10;;;1.00;;
12005;SDS011;6062;47.294;12.182;2023-05-07T13:39:15;2.15;;;1.00;;
12005;SDS011;6062;47.294;12.182;2023-05-07T13:41:41;1.50;;;0.90;;
12005;SDS011;6062;47.294;12.182;2023-05-07T13:44:07;1.15;;;0.70;;
12005;SDS011;6062;47.294;12.182;2023-05-07T13:46:32;1.00;;;0.80;;
12005;SDS011;6062;47.294;12.182;2023-05-07T13:48:58;1.60;;;0.88;;
12005;SDS011;6062;47.294;12.182;2023-05-07T13:51:24;1.55;;;0.90;;
12005;SDS011;6062;47.294;12.182;2023-05-07T13:53:50;1.15;;;1.00;;
12005;SDS011;6062;47.294;12.182;2023-05-07T13:56:17;2.30;;;0.93;;
12005;SDS011;6062;47.294;12.182;2023-05-07T13:58:43;1.35;;;0.85;;
12005;SDS011;6062;47.294;12.182;2023-05-07T14:01:08;0.90;;;0.73;;
12005;SDS011;6062;47.294;12.182;2023-05-07T14:03:35;0.70;;;0.70;;
12005;SDS011;6062;47.294;12.182;2023-05-07T14:06:02;1.00;;;0.90;;
12005;SDS011;6062;47.294;12.182;2023-05-07T14:08:28;0.77;;;0.75;;
12005;SDS011;6062;47.294;12.182;2023-05-07T14:10:54;0.80;;;0.80;;
12005;SDS011;6062;47.294;12.182;2023-05-07T14:13:21;1.00;;;0.90;;
12005;SDS011;6062;47.294;12.182;2023-05-07T14:15:47;1.10;;;0.75;;
12005;SDS011;6062;47.294;12.182;2023-05-07T14:18:14;1.02;;;0.75;;
12005;SDS011;6062;47.294;12.182;2023-05-07T14:20:40;1.42;;;0.70;;
12005;SDS011;6062;47.294;12.182;2023-05-07T14:23:08;1.08;;;0.77;;
12005;SDS011;6062;47.294;12.182;2023-05-07T14:25:34;0.82;;;0.63;;
12005;SDS011;6062;47.294;12.182;2023-05-07T14:28:00;0.77;;;0.75;;
12005;SDS011;6062;47.294;12.182;2023-05-07T14:30:26;0.82;;;0.70;;
12005;SDS011;6062;47.294;12.182;2023-05-07T14:32:51;0.82;;;0.73;;
12005;SDS011;6062;47.294;12.182;2023-05-07T14:35:17;0.70;;;0.70;;
12005;SDS011;6062;47.294;12.182;2023-05-07T14:37:43;0.93;;;0.70;;
12005;SDS011;6062;47.294;12.182;2023-05-07T14:40:09;1.02;;;0.60;;
12005;SDS011;6062;47.294;12.182;2023-05-07T14:42:35;0.60;;;0.60;;
12005;SDS011;6062;47.294;12.182;2023-05-07T14:45:01;0.82;;;0.50;;
12005;SDS011;6062;47.294;12.182;2023-05-07T14:47:27;0.75;;;0.55;;
12005;SDS011;6062;47.294;12.182;2023-05-07T14:49:53;0.90;;;0.60;;
12005;SDS011;6062;47.294;12.182;2023-05-07T14:52:19;1.27;;;0.57;;
12005;SDS011;6062;47.294;12.182;2023-05-07T14:54:45;0.88;;;0.60;;
12005;SDS011;6062;47.294;12.182;2023-05-07T14:57:13;1.23;;;0.65;;
12005;SDS011;6062;47.294;12.182;2023-05-07T14:59:43;0.60;;;0.60;;
12005;SDS011;6062;47.294;12.182;2023-05-07T15:02:09;0.60;;;0.60;;
12005;SDS011;6062;47.294;12.182;2023-05-07T15:04:37;0.80;;;0.80;;
12005;SDS011;6062;47.294;12.182;2023-05-07T15:07:04;0.70;;;0.70;;
12005;SDS011;6062;47.294;12.182;2023-05-07T15:09:30;0.80;;;0.60;;